sensor_id;sensor_type;location;lat;lon;timestamp;temperature;humidity
60313;DHT22;46158;52.850;6.970;2023-08-17T00:01:27;20.70;82.90
60313;DHT22;46158;52.850;6.970;2023-08-17T00:03:53;20.70;83.00
60313;DHT22;46158;52.850;6.970;2023-08-17T00:06:18;20.70;83.00
60313;DHT22;46158;52.850;6.970;2023-08-17T00:08:45;20.70;83.00
60313;DHT22;46158;52.850;6.970;2023-08-17T00:11:10;20.70;83.00
60313;DHT22;46158;52.850;6.970;2023-08-17T00:13:36;20.60;83.00
60313;DHT22;46158;52.850;6.970;2023-08-17T00:16:02;20.70;83.00
60313;DHT22;46158;52.850;6.970;2023-08-17T00:18:27;20.70;83.10
60313;DHT22;46158;52.850;6.970;2023-08-17T00:20:53;20.70;83.10
60313;DHT22;46158;52.850;6.970;2023-08-17T00:23:19;20.60;83.00
60313;DHT22;46158;52.850;6.970;2023-08-17T00:25:46;20.60;83.00
60313;DHT22;46158;52.850;6.970;2023-08-17T00:28:13;20.60;83.10
60313;DHT22;46158;52.850;6.970;2023-08-17T00:30:39;20.60;83.10
60313;DHT22;46158;52.850;6.970;2023-08-17T00:33:05;20.60;83.10
60313;DHT22;46158;52.850;6.970;2023-08-17T00:35:31;20.60;83.10
60313;DHT22;46158;52.850;6.970;2023-08-17T00:37:58;20.60;83.10
60313;DHT22;46158;52.850;6.970;2023-08-17T00:40:23;20.60;83.20
60313;DHT22;46158;52.850;6.970;2023-08-17T00:42:49;20.60;83.20
60313;DHT22;46158;52.850;6.970;2023-08-17T00:45:15;20.60;83.20
60313;DHT22;46158;52.850;6.970;2023-08-17T00:47:41;20.60;83.20
60313;DHT22;46158;52.850;6.970;2023-08-17T00:50:07;20.60;83.20
60313;DHT22;46158;52.850;6.970;2023-08-17T00:52:34;20.60;83.20
60313;DHT22;46158;52.850;6.970;2023-08-17T00:55:00;20.60;83.30
60313;DHT22;46158;52.850;6.970;2023-08-17T00:57:28;20.60;83.30
60313;DHT22;46158;52.850;6.970;2023-08-17T00:59:54;20.50;83.20
60313;DHT22;46158;52.850;6.970;2023-08-17T01:02:20;20.50;83.30
60313;DHT22;46158;52.850;6.970;2023-08-17T01:04:46;20.50;83.20
60313;DHT22;46158;52.850;6.970;2023-08-17T01:07:11;20.50;83.30
60313;DHT22;46158;52.850;6.970;2023-08-17T01:09:37;20.50;83.30
60313;DHT22;46158;52.850;6.970;2023-08-17T01:12:13;20.50;83.40
60313;DHT22;46158;52.850;6.970;2023-08-17T01:15:09;20.50;83.30
60313;DHT22;46158;52.850;6.970;2023-08-17T01:17:47;20.50;83.30
60313;DHT22;46158;52.850;6.970;2023-08-17T01:20:18;20.50;83.40
60313;DHT22;46158;52.850;6.970;2023-08-17T01:22:45;20.50;83.40
60313;DHT22;46158;52.850;6.970;2023-08-17T01:25:12;20.50;83.40
60313;DHT22;46158;52.850;6.970;2023-08-17T01:27:44;20.50;83.40
60313;DHT22;46158;52.850;6.970;2023-08-17T01:30:13;20.50;83.40
60313;DHT22;46158;52.850;6.970;2023-08-17T01:32:48;20.50;83.40
60313;DHT22;46158;52.850;6.970;2023-08-17T01:35:38;20.50;83.50
60313;DHT22;46158;52.850;6.970;2023-08-17T01:38:09;20.50;83.40
60313;DHT22;46158;52.850;6.970;2023-08-17T01:40:37;20.50;83.50
60313;DHT22;46158;52.850;6.970;2023-08-17T01:43:03;20.40;83.50
60313;DHT22;46158;52.850;6.970;2023-08-17T01:45:29;20.40;83.50
60313;DHT22;46158;52.850;6.970;2023-08-17T01:47:55;20.50;83.50
60313;DHT22;46158;52.850;6.970;2023-08-17T01:50:21;20.50;83.50
60313;DHT22;46158;52.850;6.970;2023-08-17T01:52:47;20.40;83.50
60313;DHT22;46158;52.850;6.970;2023-08-17T01:55:12;20.40;83.50
60313;DHT22;46158;52.850;6.970;2023-08-17T01:57:38;20.40;83.50
60313;DHT22;46158;52.850;6.970;2023-08-17T02:00:05;20.40;83.50
60313;DHT22;46158;52.850;6.970;2023-08-17T02:02:31;20.40;83.60
60313;DHT22;46158;52.850;6.970;2023-08-17T02:04:57;20.40;83.60
60313;DHT22;46158;52.850;6.970;2023-08-17T02:07:23;20.40;83.60
60313;DHT22;46158;52.850;6.970;2023-08-17T02:09:48;20.40;83.60
60313;DHT22;46158;52.850;6.970;2023-08-17T02:12:14;20.40;83.60
60313;DHT22;46158;52.850;6.970;2023-08-17T02:14:40;20.40;84.30
60313;DHT22;46158;52.850;6.970;2023-08-17T02:17:05;20.40;83.70
60313;DHT22;46158;52.850;6.970;2023-08-17T02:19:31;20.40;83.60
60313;DHT22;46158;52.850;6.970;2023-08-17T02:21:58;20.40;83.70
60313;DHT22;46158;52.850;6.970;2023-08-17T02:24:24;20.30;83.60
60313;DHT22;46158;52.850;6.970;2023-08-17T02:26:50;20.40;83.70
60313;DHT22;46158;52.850;6.970;2023-08-17T02:29:15;20.30;83.60
60313;DHT22;46158;52.850;6.970;2023-08-17T02:31:41;20.30;83.60
60313;DHT22;46158;52.850;6.970;2023-08-17T02:34:07;20.30;83.70
60313;DHT22;46158;52.850;6.970;2023-08-17T02:36:33;20.30;83.60
60313;DHT22;46158;52.850;6.970;2023-08-17T02:38:59;20.30;83.70
60313;DHT22;46158;52.850;6.970;2023-08-17T02:41:24;20.30;83.70
60313;DHT22;46158;52.850;6.970;2023-08-17T02:43:50;20.30;83.70
60313;DHT22;46158;52.850;6.970;2023-08-17T02:46:15;20.30;83.70
60313;DHT22;46158;52.850;6.970;2023-08-17T02:48:41;20.30;83.70
60313;DHT22;46158;52.850;6.970;2023-08-17T02:51:07;20.30;83.80
60313;DHT22;46158;52.850;6.970;2023-08-17T02:53:32;20.30;83.70
60313;DHT22;46158;52.850;6.970;2023-08-17T02:55:58;20.30;83.70
60313;DHT22;46158;52.850;6.970;2023-08-17T02:58:23;20.30;83.80
60313;DHT22;46158;52.850;6.970;2023-08-17T03:00:51;20.30;83.80
60313;DHT22;46158;52.850;6.970;2023-08-17T03:03:17;20.30;83.80
60313;DHT22;46158;52.850;6.970;2023-08-17T03:05:43;20.30;83.80
60313;DHT22;46158;52.850;6.970;2023-08-17T03:08:08;20.30;83.80
60313;DHT22;46158;52.850;6.970;2023-08-17T03:10:34;20.20;83.80
60313;DHT22;46158;52.850;6.970;2023-08-17T03:12:59;20.30;83.80
60313;DHT22;46158;52.850;6.970;2023-08-17T03:15:25;20.30;83.80
60313;DHT22;46158;52.850;6.970;2023-08-17T03:17:51;20.20;83.80
60313;DHT22;46158;52.850;6.970;2023-08-17T03:20:16;20.30;83.80
60313;DHT22;46158;52.850;6.970;2023-08-17T03:22:42;20.20;83.80
60313;DHT22;46158;52.850;6.970;2023-08-17T03:25:08;20.20;83.80
60313;DHT22;46158;52.850;6.970;2023-08-17T03:27:34;20.20;83.80
60313;DHT22;46158;52.850;6.970;2023-08-17T03:29:59;20.20;83.80
60313;DHT22;46158;52.850;6.970;2023-08-17T03:32:25;20.20;83.80
60313;DHT22;46158;52.850;6.970;2023-08-17T03:34:51;20.20;83.80
60313;DHT22;46158;52.850;6.970;2023-08-17T03:37:16;20.20;83.80
60313;DHT22;46158;52.850;6.970;2023-08-17T03:39:42;20.20;83.80
60313;DHT22;46158;52.850;6.970;2023-08-17T03:42:07;20.20;83.90
60313;DHT22;46158;52.850;6.970;2023-08-17T03:44:33;20.20;83.90
60313;DHT22;46158;52.850;6.970;2023-08-17T03:46:59;20.10;83.80
60313;DHT22;46158;52.850;6.970;2023-08-17T03:49:24;20.20;83.90
60313;DHT22;46158;52.850;6.970;2023-08-17T03:51:50;20.20;83.90
60313;DHT22;46158;52.850;6.970;2023-08-17T03:54:17;20.10;83.80
60313;DHT22;46158;52.850;6.970;2023-08-17T03:56:43;20.10;83.80
60313;DHT22;46158;52.850;6.970;2023-08-17T03:59:08;20.10;83.80
60313;DHT22;46158;52.850;6.970;2023-08-17T04:01:34;20.10;83.80
60313;DHT22;46158;52.850;6.970;2023-08-17T04:03:59;20.10;83.80
60313;DHT22;46158;52.850;6.970;2023-08-17T04:06:25;20.10;83.90
60313;DHT22;46158;52.850;6.970;2023-08-17T04:08:50;20.10;83.80
60313;DHT22;46158;52.850;6.970;2023-08-17T04:11:16;20.10;83.90
60313;DHT22;46158;52.850;6.970;2023-08-17T04:13:42;20.10;83.90
60313;DHT22;46158;52.850;6.970;2023-08-17T04:16:07;20.10;83.90
60313;DHT22;46158;52.850;6.970;2023-08-17T04:18:33;20.10;83.90
60313;DHT22;46158;52.850;6.970;2023-08-17T04:20:58;20.10;83.90
60313;DHT22;46158;52.850;6.970;2023-08-17T04:23:24;20.10;83.90
60313;DHT22;46158;52.850;6.970;2023-08-17T04:25:50;20.10;83.90
60313;DHT22;46158;52.850;6.970;2023-08-17T04:28:15;20.10;83.90
60313;DHT22;46158;52.850;6.970;2023-08-17T04:30:41;20.10;83.90
60313;DHT22;46158;52.850;6.970;2023-08-17T04:33:07;20.10;83.90
60313;DHT22;46158;52.850;6.970;2023-08-17T04:35:34;20.10;83.90
60313;DHT22;46158;52.850;6.970;2023-08-17T04:37:59;20.10;83.90
60313;DHT22;46158;52.850;6.970;2023-08-17T04:40:25;20.00;83.80
60313;DHT22;46158;52.850;6.970;2023-08-17T04:42:51;20.00;83.80
60313;DHT22;46158;52.850;6.970;2023-08-17T04:45:17;20.00;83.90
60313;DHT22;46158;52.850;6.970;2023-08-17T04:47:42;20.00;83.80
60313;DHT22;46158;52.850;6.970;2023-08-17T04:50:08;20.00;83.80
60313;DHT22;46158;52.850;6.970;2023-08-17T04:52:34;20.10;83.90
60313;DHT22;46158;52.850;6.970;2023-08-17T04:55:00;20.10;83.90
60313;DHT22;46158;52.850;6.970;2023-08-17T04:57:25;20.00;83.80
60313;DHT22;46158;52.850;6.970;2023-08-17T04:59:52;20.10;83.80
60313;DHT22;46158;52.850;6.970;2023-08-17T05:02:18;20.00;83.70
60313;DHT22;46158;52.850;6.970;2023-08-17T05:04:45;20.00;83.70
60313;DHT22;46158;52.850;6.970;2023-08-17T05:07:11;20.00;83.70
60313;DHT22;46158;52.850;6.970;2023-08-17T05:09:36;20.00;83.80
60313;DHT22;46158;52.850;6.970;2023-08-17T05:12:02;20.00;83.80
60313;DHT22;46158;52.850;6.970;2023-08-17T05:14:28;20.00;83.80
60313;DHT22;46158;52.850;6.970;2023-08-17T05:16:53;20.00;83.80
60313;DHT22;46158;52.850;6.970;2023-08-17T05:19:19;20.00;83.80
60313;DHT22;46158;52.850;6.970;2023-08-17T05:21:45;20.00;83.90
60313;DHT22;46158;52.850;6.970;2023-08-17T05:24:10;20.00;83.80
60313;DHT22;46158;52.850;6.970;2023-08-17T05:26:36;20.00;83.80
60313;DHT22;46158;52.850;6.970;2023-08-17T05:29:02;19.90;83.80
60313;DHT22;46158;52.850;6.970;2023-08-17T05:31:27;20.00;83.90
60313;DHT22;46158;52.850;6.970;2023-08-17T05:33:53;20.00;83.90
60313;DHT22;46158;52.850;6.970;2023-08-17T05:36:19;19.90;83.90
60313;DHT22;46158;52.850;6.970;2023-08-17T05:38:44;20.00;83.90
60313;DHT22;46158;52.850;6.970;2023-08-17T05:41:10;19.90;83.90
60313;DHT22;46158;52.850;6.970;2023-08-17T05:43:35;19.90;83.90
60313;DHT22;46158;52.850;6.970;2023-08-17T05:46:01;19.90;83.90
60313;DHT22;46158;52.850;6.970;2023-08-17T05:48:28;19.90;83.90
60313;DHT22;46158;52.850;6.970;2023-08-17T05:50:55;19.90;83.90
60313;DHT22;46158;52.850;6.970;2023-08-17T05:53:21;19.90;83.90
60313;DHT22;46158;52.850;6.970;2023-08-17T05:55:46;19.90;84.00
60313;DHT22;46158;52.850;6.970;2023-08-17T05:58:12;19.90;84.00
60313;DHT22;46158;52.850;6.970;2023-08-17T06:00:38;19.90;84.00
60313;DHT22;46158;52.850;6.970;2023-08-17T06:03:04;19.90;84.00
60313;DHT22;46158;52.850;6.970;2023-08-17T06:05:29;19.90;84.00
60313;DHT22;46158;52.850;6.970;2023-08-17T06:07:59;19.90;84.00
60313;DHT22;46158;52.850;6.970;2023-08-17T06:10:25;19.90;84.00
60313;DHT22;46158;52.850;6.970;2023-08-17T06:12:54;19.90;84.70
60313;DHT22;46158;52.850;6.970;2023-08-17T06:15:20;19.90;84.00
60313;DHT22;46158;52.850;6.970;2023-08-17T06:17:46;19.90;84.10
60313;DHT22;46158;52.850;6.970;2023-08-17T06:20:12;19.90;84.10
60313;DHT22;46158;52.850;6.970;2023-08-17T06:22:39;19.90;84.10
60313;DHT22;46158;52.850;6.970;2023-08-17T06:25:05;19.90;84.10
60313;DHT22;46158;52.850;6.970;2023-08-17T06:27:31;19.90;84.20
60313;DHT22;46158;52.850;6.970;2023-08-17T06:29:57;19.90;84.20
60313;DHT22;46158;52.850;6.970;2023-08-17T06:32:23;19.90;84.20
60313;DHT22;46158;52.850;6.970;2023-08-17T06:34:48;19.90;84.20
60313;DHT22;46158;52.850;6.970;2023-08-17T06:37:14;19.90;84.30
60313;DHT22;46158;52.850;6.970;2023-08-17T06:39:40;19.90;84.30
60313;DHT22;46158;52.850;6.970;2023-08-17T06:42:05;19.80;84.30
60313;DHT22;46158;52.850;6.970;2023-08-17T06:44:31;19.80;84.30
60313;DHT22;46158;52.850;6.970;2023-08-17T06:46:57;19.90;84.30
60313;DHT22;46158;52.850;6.970;2023-08-17T06:49:24;19.80;84.20
60313;DHT22;46158;52.850;6.970;2023-08-17T06:51:50;19.80;84.30
60313;DHT22;46158;52.850;6.970;2023-08-17T06:54:15;19.80;84.30
60313;DHT22;46158;52.850;6.970;2023-08-17T06:56:41;19.80;84.30
60313;DHT22;46158;52.850;6.970;2023-08-17T06:59:06;19.80;84.30
60313;DHT22;46158;52.850;6.970;2023-08-17T07:01:32;19.80;84.90
60313;DHT22;46158;52.850;6.970;2023-08-17T07:03:58;19.80;84.20
60313;DHT22;46158;52.850;6.970;2023-08-17T07:06:26;19.80;84.20
60313;DHT22;46158;52.850;6.970;2023-08-17T07:08:54;19.80;84.20
60313;DHT22;46158;52.850;6.970;2023-08-17T07:11:19;19.80;84.30
60313;DHT22;46158;52.850;6.970;2023-08-17T07:13:45;19.80;84.20
60313;DHT22;46158;52.850;6.970;2023-08-17T07:16:10;19.80;84.30
60313;DHT22;46158;52.850;6.970;2023-08-17T07:18:36;19.80;84.30
60313;DHT22;46158;52.850;6.970;2023-08-17T07:21:02;19.80;84.30
60313;DHT22;46158;52.850;6.970;2023-08-17T07:23:27;19.80;84.30
60313;DHT22;46158;52.850;6.970;2023-08-17T07:25:53;19.80;84.20
60313;DHT22;46158;52.850;6.970;2023-08-17T07:28:19;19.80;84.20
60313;DHT22;46158;52.850;6.970;2023-08-17T07:30:44;19.80;84.30
60313;DHT22;46158;52.850;6.970;2023-08-17T07:33:10;19.80;84.30
60313;DHT22;46158;52.850;6.970;2023-08-17T07:35:36;19.80;84.30
60313;DHT22;46158;52.850;6.970;2023-08-17T07:38:01;19.80;84.30
60313;DHT22;46158;52.850;6.970;2023-08-17T07:40:27;19.80;84.30
60313;DHT22;46158;52.850;6.970;2023-08-17T07:42:53;19.70;84.20
60313;DHT22;46158;52.850;6.970;2023-08-17T07:45:18;19.80;84.30
60313;DHT22;46158;52.850;6.970;2023-08-17T07:47:44;19.80;84.30
60313;DHT22;46158;52.850;6.970;2023-08-17T07:50:10;19.80;84.30
60313;DHT22;46158;52.850;6.970;2023-08-17T07:52:35;19.70;84.20
60313;DHT22;46158;52.850;6.970;2023-08-17T07:55:01;19.70;84.20
60313;DHT22;46158;52.850;6.970;2023-08-17T07:57:27;19.70;84.20
60313;DHT22;46158;52.850;6.970;2023-08-17T07:59:52;19.70;84.20
60313;DHT22;46158;52.850;6.970;2023-08-17T08:02:19;19.70;84.20
60313;DHT22;46158;52.850;6.970;2023-08-17T08:04:44;19.70;84.20
60313;DHT22;46158;52.850;6.970;2023-08-17T08:07:10;19.70;84.30
60313;DHT22;46158;52.850;6.970;2023-08-17T08:09:36;19.70;84.30
60313;DHT22;46158;52.850;6.970;2023-08-17T08:12:02;19.70;84.30
60313;DHT22;46158;52.850;6.970;2023-08-17T08:14:27;19.70;84.30
60313;DHT22;46158;52.850;6.970;2023-08-17T08:16:53;19.70;84.30
60313;DHT22;46158;52.850;6.970;2023-08-17T08:19:19;19.70;84.20
60313;DHT22;46158;52.850;6.970;2023-08-17T08:21:44;19.70;84.90
60313;DHT22;46158;52.850;6.970;2023-08-17T08:24:10;19.70;84.30
60313;DHT22;46158;52.850;6.970;2023-08-17T08:26:35;19.70;84.30
60313;DHT22;46158;52.850;6.970;2023-08-17T08:29:01;19.70;84.30
60313;DHT22;46158;52.850;6.970;2023-08-17T08:31:27;19.70;84.20
60313;DHT22;46158;52.850;6.970;2023-08-17T08:33:52;19.70;84.30
60313;DHT22;46158;52.850;6.970;2023-08-17T08:36:18;19.70;84.30
60313;DHT22;46158;52.850;6.970;2023-08-17T08:38:44;19.70;84.20
60313;DHT22;46158;52.850;6.970;2023-08-17T08:41:11;19.70;84.30
60313;DHT22;46158;52.850;6.970;2023-08-17T08:43:38;19.70;84.20
60313;DHT22;46158;52.850;6.970;2023-08-17T08:46:04;19.70;84.20
60313;DHT22;46158;52.850;6.970;2023-08-17T08:48:31;19.70;84.20
60313;DHT22;46158;52.850;6.970;2023-08-17T08:50:59;19.70;84.20
60313;DHT22;46158;52.850;6.970;2023-08-17T08:53:38;19.70;84.20
60313;DHT22;46158;52.850;6.970;2023-08-17T08:56:06;19.70;84.20
60313;DHT22;46158;52.850;6.970;2023-08-17T08:58:33;19.70;84.20
60313;DHT22;46158;52.850;6.970;2023-08-17T09:01:01;19.70;84.30
60313;DHT22;46158;52.850;6.970;2023-08-17T09:03:27;19.70;84.90
60313;DHT22;46158;52.850;6.970;2023-08-17T09:05:55;19.70;84.30
60313;DHT22;46158;52.850;6.970;2023-08-17T09:08:28;19.70;84.20
60313;DHT22;46158;52.850;6.970;2023-08-17T09:10:54;19.70;84.20
60313;DHT22;46158;52.850;6.970;2023-08-17T09:13:20;19.70;84.20
60313;DHT22;46158;52.850;6.970;2023-08-17T09:15:46;19.70;84.20
60313;DHT22;46158;52.850;6.970;2023-08-17T09:18:11;19.70;84.30
60313;DHT22;46158;52.850;6.970;2023-08-17T09:20:42;19.70;84.20
60313;DHT22;46158;52.850;6.970;2023-08-17T09:23:12;19.70;84.20
60313;DHT22;46158;52.850;6.970;2023-08-17T09:25:43;19.60;84.10
60313;DHT22;46158;52.850;6.970;2023-08-17T09:28:09;19.70;84.20
60313;DHT22;46158;52.850;6.970;2023-08-17T09:30:56;19.60;84.20
60313;DHT22;46158;52.850;6.970;2023-08-17T09:33:27;19.60;84.20
60313;DHT22;46158;52.850;6.970;2023-08-17T09:35:54;19.60;84.20
60313;DHT22;46158;52.850;6.970;2023-08-17T09:38:20;19.70;84.30
60313;DHT22;46158;52.850;6.970;2023-08-17T09:40:47;19.60;84.20
60313;DHT22;46158;52.850;6.970;2023-08-17T09:43:14;19.60;84.20
60313;DHT22;46158;52.850;6.970;2023-08-17T09:45:40;19.60;84.20
60313;DHT22;46158;52.850;6.970;2023-08-17T09:48:07;19.60;84.10
60313;DHT22;46158;52.850;6.970;2023-08-17T09:50:34;19.70;84.20
60313;DHT22;46158;52.850;6.970;2023-08-17T09:53:00;19.70;84.20
60313;DHT22;46158;52.850;6.970;2023-08-17T09:55:26;19.70;84.20
60313;DHT22;46158;52.850;6.970;2023-08-17T09:57:52;19.70;84.20
60313;DHT22;46158;52.850;6.970;2023-08-17T10:00:19;19.70;84.20
60313;DHT22;46158;52.850;6.970;2023-08-17T10:02:49;19.70;84.30
60313;DHT22;46158;52.850;6.970;2023-08-17T10:05:18;19.70;84.20
60313;DHT22;46158;52.850;6.970;2023-08-17T10:07:50;19.70;84.20
60313;DHT22;46158;52.850;6.970;2023-08-17T10:10:24;19.70;84.20
60313;DHT22;46158;52.850;6.970;2023-08-17T10:13:05;19.60;84.10
60313;DHT22;46158;52.850;6.970;2023-08-17T10:15:37;19.70;84.20
60313;DHT22;46158;52.850;6.970;2023-08-17T10:18:17;19.70;84.20
60313;DHT22;46158;52.850;6.970;2023-08-17T10:20:57;19.70;84.20
60313;DHT22;46158;52.850;6.970;2023-08-17T10:23:26;19.60;84.10
60313;DHT22;46158;52.850;6.970;2023-08-17T10:25:52;19.70;84.20
60313;DHT22;46158;52.850;6.970;2023-08-17T10:28:20;19.70;84.20
60313;DHT22;46158;52.850;6.970;2023-08-17T10:30:46;19.70;84.20
60313;DHT22;46158;52.850;6.970;2023-08-17T10:33:14;19.70;84.20
60313;DHT22;46158;52.850;6.970;2023-08-17T10:35:41;19.60;84.10
60313;DHT22;46158;52.850;6.970;2023-08-17T10:38:08;19.70;84.20
60313;DHT22;46158;52.850;6.970;2023-08-17T10:40:39;19.70;84.20
60313;DHT22;46158;52.850;6.970;2023-08-17T10:43:05;19.70;84.10
60313;DHT22;46158;52.850;6.970;2023-08-17T10:45:35;19.70;84.20
60313;DHT22;46158;52.850;6.970;2023-08-17T10:50:35;19.70;84.10
60313;DHT22;46158;52.850;6.970;2023-08-17T10:53:08;19.70;84.20
60313;DHT22;46158;52.850;6.970;2023-08-17T10:55:41;19.70;84.10
60313;DHT22;46158;52.850;6.970;2023-08-17T10:58:09;19.60;84.10
60313;DHT22;46158;52.850;6.970;2023-08-17T11:00:40;19.70;84.20
60313;DHT22;46158;52.850;6.970;2023-08-17T11:03:17;19.70;84.10
60313;DHT22;46158;52.850;6.970;2023-08-17T11:05:48;19.70;84.20
60313;DHT22;46158;52.850;6.970;2023-08-17T11:08:38;19.70;84.10
60313;DHT22;46158;52.850;6.970;2023-08-17T11:11:14;19.70;84.10
60313;DHT22;46158;52.850;6.970;2023-08-17T11:13:42;19.70;84.10
60313;DHT22;46158;52.850;6.970;2023-08-17T11:16:09;19.70;84.10
60313;DHT22;46158;52.850;6.970;2023-08-17T11:18:36;19.70;84.10
60313;DHT22;46158;52.850;6.970;2023-08-17T11:21:02;19.70;84.10
60313;DHT22;46158;52.850;6.970;2023-08-17T11:23:30;19.70;84.10
60313;DHT22;46158;52.850;6.970;2023-08-17T11:25:56;19.70;84.10
60313;DHT22;46158;52.850;6.970;2023-08-17T11:28:25;19.70;84.10
60313;DHT22;46158;52.850;6.970;2023-08-17T11:31:01;19.70;84.10
60313;DHT22;46158;52.850;6.970;2023-08-17T11:33:28;19.70;84.10
60313;DHT22;46158;52.850;6.970;2023-08-17T11:35:55;19.70;84.10
60313;DHT22;46158;52.850;6.970;2023-08-17T11:38:21;19.70;84.10
60313;DHT22;46158;52.850;6.970;2023-08-17T11:40:47;19.70;84.10
60313;DHT22;46158;52.850;6.970;2023-08-17T11:43:13;19.70;84.10
60313;DHT22;46158;52.850;6.970;2023-08-17T11:45:39;19.70;84.10
60313;DHT22;46158;52.850;6.970;2023-08-17T11:48:05;19.70;84.80
60313;DHT22;46158;52.850;6.970;2023-08-17T11:50:31;19.70;84.10
60313;DHT22;46158;52.850;6.970;2023-08-17T11:52:59;19.70;84.10
60313;DHT22;46158;52.850;6.970;2023-08-17T11:55:26;19.70;84.10
60313;DHT22;46158;52.850;6.970;2023-08-17T11:57:52;19.70;84.10
60313;DHT22;46158;52.850;6.970;2023-08-17T12:00:20;19.70;84.10
60313;DHT22;46158;52.850;6.970;2023-08-17T12:02:49;19.70;84.10
60313;DHT22;46158;52.850;6.970;2023-08-17T12:05:22;19.80;84.10
60313;DHT22;46158;52.850;6.970;2023-08-17T12:07:53;19.70;84.00
60313;DHT22;46158;52.850;6.970;2023-08-17T12:10:19;19.70;84.10
60313;DHT22;46158;52.850;6.970;2023-08-17T12:12:48;19.80;84.10
60313;DHT22;46158;52.850;6.970;2023-08-17T12:15:16;19.80;84.10
60313;DHT22;46158;52.850;6.970;2023-08-17T12:17:46;19.70;84.10
60313;DHT22;46158;52.850;6.970;2023-08-17T12:20:16;19.80;84.10
60313;DHT22;46158;52.850;6.970;2023-08-17T12:22:42;19.80;84.10
60313;DHT22;46158;52.850;6.970;2023-08-17T12:25:09;19.70;84.10
60313;DHT22;46158;52.850;6.970;2023-08-17T12:27:35;19.70;84.20
60313;DHT22;46158;52.850;6.970;2023-08-17T12:30:01;19.70;84.10
60313;DHT22;46158;52.850;6.970;2023-08-17T12:32:27;19.80;84.10
60313;DHT22;46158;52.850;6.970;2023-08-17T12:34:52;19.80;84.10
60313;DHT22;46158;52.850;6.970;2023-08-17T12:37:19;19.80;84.10
60313;DHT22;46158;52.850;6.970;2023-08-17T12:39:47;19.80;84.10
60313;DHT22;46158;52.850;6.970;2023-08-17T12:42:13;19.80;84.10
60313;DHT22;46158;52.850;6.970;2023-08-17T12:44:40;19.80;84.10
60313;DHT22;46158;52.850;6.970;2023-08-17T12:47:05;19.80;84.10
60313;DHT22;46158;52.850;6.970;2023-08-17T12:49:31;19.80;84.10
60313;DHT22;46158;52.850;6.970;2023-08-17T12:51:57;19.80;84.10
60313;DHT22;46158;52.850;6.970;2023-08-17T12:54:22;19.80;84.10
60313;DHT22;46158;52.850;6.970;2023-08-17T12:56:48;19.80;84.10
60313;DHT22;46158;52.850;6.970;2023-08-17T12:59:13;19.80;84.10
60313;DHT22;46158;52.850;6.970;2023-08-17T13:01:39;19.80;84.10
60313;DHT22;46158;52.850;6.970;2023-08-17T13:04:05;19.80;84.10
60313;DHT22;46158;52.850;6.970;2023-08-17T13:06:31;19.80;84.10
60313;DHT22;46158;52.850;6.970;2023-08-17T13:08:58;19.90;84.10
60313;DHT22;46158;52.850;6.970;2023-08-17T13:11:24;19.80;84.10
60313;DHT22;46158;52.850;6.970;2023-08-17T13:13:49;19.80;84.10
60313;DHT22;46158;52.850;6.970;2023-08-17T13:16:15;19.90;84.20
60313;DHT22;46158;52.850;6.970;2023-08-17T13:18:41;19.80;84.10
60313;DHT22;46158;52.850;6.970;2023-08-17T13:21:06;19.90;84.10
60313;DHT22;46158;52.850;6.970;2023-08-17T13:23:32;19.80;84.00
60313;DHT22;46158;52.850;6.970;2023-08-17T13:25:58;19.80;84.00
60313;DHT22;46158;52.850;6.970;2023-08-17T13:28:24;19.80;84.00
60313;DHT22;46158;52.850;6.970;2023-08-17T13:30:50;19.90;84.10
60313;DHT22;46158;52.850;6.970;2023-08-17T13:33:16;19.90;84.10
60313;DHT22;46158;52.850;6.970;2023-08-17T13:35:42;19.90;84.10
60313;DHT22;46158;52.850;6.970;2023-08-17T13:38:08;19.90;84.10
60313;DHT22;46158;52.850;6.970;2023-08-17T13:40:33;19.90;84.10
60313;DHT22;46158;52.850;6.970;2023-08-17T13:43:01;19.90;84.80
60313;DHT22;46158;52.850;6.970;2023-08-17T13:45:28;19.90;84.10
60313;DHT22;46158;52.850;6.970;2023-08-17T13:47:54;19.90;84.00
60313;DHT22;46158;52.850;6.970;2023-08-17T13:50:20;19.90;84.00
60313;DHT22;46158;52.850;6.970;2023-08-17T13:52:46;19.90;84.00
60313;DHT22;46158;52.850;6.970;2023-08-17T13:55:12;19.90;84.00
60313;DHT22;46158;52.850;6.970;2023-08-17T13:57:39;19.90;84.00
60313;DHT22;46158;52.850;6.970;2023-08-17T14:00:05;19.90;84.00
60313;DHT22;46158;52.850;6.970;2023-08-17T14:02:31;19.90;84.00
60313;DHT22;46158;52.850;6.970;2023-08-17T14:04:57;19.90;84.00
60313;DHT22;46158;52.850;6.970;2023-08-17T14:07:23;19.90;84.00
60313;DHT22;46158;52.850;6.970;2023-08-17T14:09:48;19.90;84.00
60313;DHT22;46158;52.850;6.970;2023-08-17T14:12:14;19.90;84.00
60313;DHT22;46158;52.850;6.970;2023-08-17T14:14:39;19.90;83.90
60313;DHT22;46158;52.850;6.970;2023-08-17T14:17:05;19.90;84.00
60313;DHT22;46158;52.850;6.970;2023-08-17T14:19:31;20.00;84.00
60313;DHT22;46158;52.850;6.970;2023-08-17T14:21:56;19.90;83.90
60313;DHT22;46158;52.850;6.970;2023-08-17T14:24:24;19.90;83.90
60313;DHT22;46158;52.850;6.970;2023-08-17T14:26:50;20.00;84.00
60313;DHT22;46158;52.850;6.970;2023-08-17T14:29:16;19.90;83.90
60313;DHT22;46158;52.850;6.970;2023-08-17T14:31:41;20.00;84.00
60313;DHT22;46158;52.850;6.970;2023-08-17T14:34:07;20.00;83.90
60313;DHT22;46158;52.850;6.970;2023-08-17T14:36:33;20.00;83.90
60313;DHT22;46158;52.850;6.970;2023-08-17T14:38:58;20.00;83.90
60313;DHT22;46158;52.850;6.970;2023-08-17T14:41:24;20.00;84.00
60313;DHT22;46158;52.850;6.970;2023-08-17T14:43:57;19.90;83.90
60313;DHT22;46158;52.850;6.970;2023-08-17T14:46:22;19.90;83.90
60313;DHT22;46158;52.850;6.970;2023-08-17T14:48:48;20.00;84.00
60313;DHT22;46158;52.850;6.970;2023-08-17T14:51:14;20.00;83.90
60313;DHT22;46158;52.850;6.970;2023-08-17T14:53:39;20.00;83.90
60313;DHT22;46158;52.850;6.970;2023-08-17T14:56:05;20.00;83.90
60313;DHT22;46158;52.850;6.970;2023-08-17T14:58:30;20.00;83.90
60313;DHT22;46158;52.850;6.970;2023-08-17T15:00:56;20.00;83.80
60313;DHT22;46158;52.850;6.970;2023-08-17T15:03:22;20.00;83.90
60313;DHT22;46158;52.850;6.970;2023-08-17T15:05:47;20.00;83.90
60313;DHT22;46158;52.850;6.970;2023-08-17T15:08:13;20.00;83.80
60313;DHT22;46158;52.850;6.970;2023-08-17T15:10:38;20.00;83.80
60313;DHT22;46158;52.850;6.970;2023-08-17T15:13:04;20.00;83.80
60313;DHT22;46158;52.850;6.970;2023-08-17T15:15:30;20.00;83.80
60313;DHT22;46158;52.850;6.970;2023-08-17T15:17:56;20.00;83.80
60313;DHT22;46158;52.850;6.970;2023-08-17T15:20:21;20.00;83.80
60313;DHT22;46158;52.850;6.970;2023-08-17T15:22:47;20.00;83.80
60313;DHT22;46158;52.850;6.970;2023-08-17T15:25:12;20.00;83.80
60313;DHT22;46158;52.850;6.970;2023-08-17T15:27:38;20.00;83.80
60313;DHT22;46158;52.850;6.970;2023-08-17T15:30:04;20.00;83.80